sensor_id;sensor_type;location;lat;lon;timestamp;P1;durP1;ratioP1;P2;durP2;ratioP2
14686;SDS011;7431;49.440;11.084;2024-03-02T00:02:11;22.73;;;14.53;;
14686;SDS011;7431;49.440;11.084;2024-03-02T00:04:37;24.30;;;14.00;;
14686;SDS011;7431;49.440;11.084;2024-03-02T00:07:03;27.27;;;15.20;;
14686;SDS011;7431;49.440;11.084;2024-03-02T00:09:29;26.53;;;16.23;;
14686;SDS011;7431;49.440;11.084;2024-03-02T00:11:55;25.70;;;14.43;;
14686;SDS011;7431;49.440;11.084;2024-03-02T00:14:21;21.67;;;14.07;;
14686;SDS011;7431;49.440;11.084;2024-03-02T00:16:49;22.83;;;13.93;;
14686;SDS011;7431;49.440;11.084;2024-03-02T00:19:16;20.93;;;13.20;;
14686;SDS011;7431;49.440;11.084;2024-03-02T00:21:42;21.47;;;14.20;;
14686;SDS011;7431;49.440;11.084;2024-03-02T00:24:18;23.93;;;14.27;;
14686;SDS011;7431;49.440;11.084;2024-03-02T00:26:46;25.13;;;15.87;;
14686;SDS011;7431;49.440;11.084;2024-03-02T00:29:12;27.07;;;14.87;;
14686;SDS011;7431;49.440;11.084;2024-03-02T00:31:40;25.73;;;14.60;;
14686;SDS011;7431;49.440;11.084;2024-03-02T00:34:07;23.47;;;13.80;;
14686;SDS011;7431;49.440;11.084;2024-03-02T00:36:35;23.37;;;14.53;;
14686;SDS011;7431;49.440;11.084;2024-03-02T00:39:01;22.87;;;14.40;;
14686;SDS011;7431;49.440;11.084;2024-03-02T00:41:31;22.47;;;13.70;;
14686;SDS011;7431;49.440;11.084;2024-03-02T00:44:00;24.97;;;15.23;;
14686;SDS011;7431;49.440;11.084;2024-03-02T00:46:27;23.97;;;14.73;;
14686;SDS011;7431;49.440;11.084;2024-03-02T00:48:55;23.93;;;13.97;;
14686;SDS011;7431;49.440;11.084;2024-03-02T00:51:23;26.87;;;15.13;;
14686;SDS011;7431;49.440;11.084;2024-03-02T00:53:49;23.97;;;14.77;;
14686;SDS011;7431;49.440;11.084;2024-03-02T00:56:15;29.70;;;15.33;;
14686;SDS011;7431;49.440;11.084;2024-03-02T00:58:42;24.77;;;15.00;;
14686;SDS011;7431;49.440;11.084;2024-03-02T01:01:08;24.80;;;15.33;;
14686;SDS011;7431;49.440;11.084;2024-03-02T01:03:34;26.03;;;14.70;;
14686;SDS011;7431;49.440;11.084;2024-03-02T01:06:02;22.67;;;14.67;;
14686;SDS011;7431;49.440;11.084;2024-03-02T01:08:28;28.00;;;15.87;;
14686;SDS011;7431;49.440;11.084;2024-03-02T01:10:54;21.03;;;13.77;;
14686;SDS011;7431;49.440;11.084;2024-03-02T01:13:21;26.83;;;16.60;;
14686;SDS011;7431;49.440;11.084;2024-03-02T01:15:47;25.80;;;15.70;;
14686;SDS011;7431;49.440;11.084;2024-03-02T01:18:13;25.57;;;15.93;;
14686;SDS011;7431;49.440;11.084;2024-03-02T01:20:39;23.00;;;14.40;;
14686;SDS011;7431;49.440;11.084;2024-03-02T01:23:05;26.53;;;15.50;;
14686;SDS011;7431;49.440;11.084;2024-03-02T01:25:31;28.23;;;14.47;;
14686;SDS011;7431;49.440;11.084;2024-03-02T01:27:57;24.57;;;15.20;;
14686;SDS011;7431;49.440;11.084;2024-03-02T01:30:23;26.07;;;15.13;;
14686;SDS011;7431;49.440;11.084;2024-03-02T01:32:49;20.40;;;14.43;;
14686;SDS011;7431;49.440;11.084;2024-03-02T01:35:15;24.63;;;14.03;;
14686;SDS011;7431;49.440;11.084;2024-03-02T01:37:41;24.07;;;15.47;;
14686;SDS011;7431;49.440;11.084;2024-03-02T01:40:07;25.00;;;14.47;;
14686;SDS011;7431;49.440;11.084;2024-03-02T01:42:40;27.33;;;13.80;;
14686;SDS011;7431;49.440;11.084;2024-03-02T01:45:06;25.00;;;14.73;;
14686;SDS011;7431;49.440;11.084;2024-03-02T01:47:32;24.30;;;14.90;;
14686;SDS011;7431;49.440;11.084;2024-03-02T01:49:58;23.57;;;15.90;;
14686;SDS011;7431;49.440;11.084;2024-03-02T01:52:25;24.83;;;13.70;;
14686;SDS011;7431;49.440;11.084;2024-03-02T01:54:51;24.33;;;15.50;;
14686;SDS011;7431;49.440;11.084;2024-03-02T01:57:17;22.13;;;13.87;;
14686;SDS011;7431;49.440;11.084;2024-03-02T01:59:43;22.77;;;14.07;;
14686;SDS011;7431;49.440;11.084;2024-03-02T02:02:09;26.87;;;14.90;;
14686;SDS011;7431;49.440;11.084;2024-03-02T02:04:35;25.53;;;14.87;;
14686;SDS011;7431;49.440;11.084;2024-03-02T02:07:01;25.67;;;14.80;;
14686;SDS011;7431;49.440;11.084;2024-03-02T02:09:27;19.50;;;14.00;;
14686;SDS011;7431;49.440;11.084;2024-03-02T02:11:53;25.67;;;13.77;;
14686;SDS011;7431;49.440;11.084;2024-03-02T02:14:19;22.07;;;13.40;;
14686;SDS011;7431;49.440;11.084;2024-03-02T02:16:45;21.90;;;13.87;;
14686;SDS011;7431;49.440;11.084;2024-03-02T02:19:11;22.80;;;13.70;;
14686;SDS011;7431;49.440;11.084;2024-03-02T02:21:38;24.03;;;13.87;;
14686;SDS011;7431;49.440;11.084;2024-03-02T02:24:04;22.97;;;15.27;;
14686;SDS011;7431;49.440;11.084;2024-03-02T02:26:30;21.50;;;14.00;;
14686;SDS011;7431;49.440;11.084;2024-03-02T02:28:56;26.33;;;15.23;;
14686;SDS011;7431;49.440;11.084;2024-03-02T02:31:22;28.17;;;14.60;;
14686;SDS011;7431;49.440;11.084;2024-03-02T02:33:48;26.03;;;15.53;;
14686;SDS011;7431;49.440;11.084;2024-03-02T02:36:14;24.83;;;15.80;;
14686;SDS011;7431;49.440;11.084;2024-03-02T02:38:41;25.83;;;15.37;;
14686;SDS011;7431;49.440;11.084;2024-03-02T02:41:08;22.20;;;14.83;;
14686;SDS011;7431;49.440;11.084;2024-03-02T02:43:34;24.83;;;15.83;;
14686;SDS011;7431;49.440;11.084;2024-03-02T02:46:00;21.53;;;13.80;;
14686;SDS011;7431;49.440;11.084;2024-03-02T02:48:26;25.53;;;14.50;;
14686;SDS011;7431;49.440;11.084;2024-03-02T02:50:52;25.17;;;14.70;;
14686;SDS011;7431;49.440;11.084;2024-03-02T02:53:18;26.97;;;14.40;;
14686;SDS011;7431;49.440;11.084;2024-03-02T02:55:44;22.00;;;14.13;;
14686;SDS011;7431;49.440;11.084;2024-03-02T02:58:10;26.63;;;15.27;;
14686;SDS011;7431;49.440;11.084;2024-03-02T03:00:42;27.00;;;15.13;;
14686;SDS011;7431;49.440;11.084;2024-03-02T03:03:08;23.90;;;14.73;;
14686;SDS011;7431;49.440;11.084;2024-03-02T03:05:33;24.77;;;14.63;;
14686;SDS011;7431;49.440;11.084;2024-03-02T03:07:59;25.43;;;14.93;;
14686;SDS011;7431;49.440;11.084;2024-03-02T03:10:25;22.73;;;13.97;;
14686;SDS011;7431;49.440;11.084;2024-03-02T03:12:52;23.77;;;14.40;;
14686;SDS011;7431;49.440;11.084;2024-03-02T03:15:21;25.70;;;14.57;;
14686;SDS011;7431;49.440;11.084;2024-03-02T03:17:47;26.33;;;15.43;;
14686;SDS011;7431;49.440;11.084;2024-03-02T03:20:13;24.10;;;15.07;;
14686;SDS011;7431;49.440;11.084;2024-03-02T03:22:40;24.57;;;14.80;;
14686;SDS011;7431;49.440;11.084;2024-03-02T03:25:06;24.77;;;14.67;;
14686;SDS011;7431;49.440;11.084;2024-03-02T03:27:33;21.83;;;14.00;;
14686;SDS011;7431;49.440;11.084;2024-03-02T03:29:59;23.77;;;13.77;;
14686;SDS011;7431;49.440;11.084;2024-03-02T03:32:25;24.50;;;14.17;;
14686;SDS011;7431;49.440;11.084;2024-03-02T03:34:50;23.47;;;13.60;;
14686;SDS011;7431;49.440;11.084;2024-03-02T03:37:16;19.80;;;12.37;;
14686;SDS011;7431;49.440;11.084;2024-03-02T03:39:42;19.40;;;12.47;;
14686;SDS011;7431;49.440;11.084;2024-03-02T03:42:08;19.97;;;12.67;;
14686;SDS011;7431;49.440;11.084;2024-03-02T03:44:34;24.17;;;12.27;;
14686;SDS011;7431;49.440;11.084;2024-03-02T03:47:00;17.00;;;10.67;;
14686;SDS011;7431;49.440;11.084;2024-03-02T03:49:27;18.43;;;10.43;;
14686;SDS011;7431;49.440;11.084;2024-03-02T03:51:53;16.50;;;10.17;;
14686;SDS011;7431;49.440;11.084;2024-03-02T03:54:19;16.80;;;9.80;;
14686;SDS011;7431;49.440;11.084;2024-03-02T03:56:45;15.83;;;10.00;;
14686;SDS011;7431;49.440;11.084;2024-03-02T03:59:11;11.87;;;8.83;;
14686;SDS011;7431;49.440;11.084;2024-03-02T04:01:37;18.73;;;10.70;;
14686;SDS011;7431;49.440;11.084;2024-03-02T04:04:03;15.90;;;8.70;;
14686;SDS011;7431;49.440;11.084;2024-03-02T04:06:29;14.03;;;8.27;;
14686;SDS011;7431;49.440;11.084;2024-03-02T04:08:55;14.13;;;9.37;;
14686;SDS011;7431;49.440;11.084;2024-03-02T04:11:21;13.17;;;9.00;;
14686;SDS011;7431;49.440;11.084;2024-03-02T04:13:47;12.43;;;8.10;;
14686;SDS011;7431;49.440;11.084;2024-03-02T04:16:13;13.40;;;9.37;;
14686;SDS011;7431;49.440;11.084;2024-03-02T04:18:39;13.03;;;8.20;;
14686;SDS011;7431;49.440;11.084;2024-03-02T04:21:05;14.03;;;8.37;;
14686;SDS011;7431;49.440;11.084;2024-03-02T04:23:31;12.37;;;8.53;;
14686;SDS011;7431;49.440;11.084;2024-03-02T04:25:57;13.77;;;8.50;;
14686;SDS011;7431;49.440;11.084;2024-03-02T04:28:23;12.70;;;8.43;;
14686;SDS011;7431;49.440;11.084;2024-03-02T04:30:49;13.67;;;8.53;;
14686;SDS011;7431;49.440;11.084;2024-03-02T04:33:15;14.60;;;9.37;;
14686;SDS011;7431;49.440;11.084;2024-03-02T04:35:41;14.90;;;9.27;;
14686;SDS011;7431;49.440;11.084;2024-03-02T04:38:07;14.43;;;9.10;;
14686;SDS011;7431;49.440;11.084;2024-03-02T04:40:33;14.60;;;9.17;;
14686;SDS011;7431;49.440;11.084;2024-03-02T04:42:59;15.37;;;9.77;;
14686;SDS011;7431;49.440;11.084;2024-03-02T04:45:25;15.40;;;9.23;;
14686;SDS011;7431;49.440;11.084;2024-03-02T04:47:51;13.47;;;9.07;;
14686;SDS011;7431;49.440;11.084;2024-03-02T04:50:17;15.00;;;9.67;;
14686;SDS011;7431;49.440;11.084;2024-03-02T04:52:43;13.67;;;9.10;;
14686;SDS011;7431;49.440;11.084;2024-03-02T04:55:09;15.43;;;9.33;;
14686;SDS011;7431;49.440;11.084;2024-03-02T04:57:41;14.60;;;8.73;;
14686;SDS011;7431;49.440;11.084;2024-03-02T05:00:07;16.13;;;9.47;;
14686;SDS011;7431;49.440;11.084;2024-03-02T05:02:34;15.87;;;9.13;;
14686;SDS011;7431;49.440;11.084;2024-03-02T05:05:00;14.23;;;9.40;;
14686;SDS011;7431;49.440;11.084;2024-03-02T05:07:27;16.53;;;9.60;;
14686;SDS011;7431;49.440;11.084;2024-03-02T05:09:53;14.80;;;9.37;;
14686;SDS011;7431;49.440;11.084;2024-03-02T05:12:19;15.93;;;10.03;;
14686;SDS011;7431;49.440;11.084;2024-03-02T05:15:04;12.90;;;9.00;;
14686;SDS011;7431;49.440;11.084;2024-03-02T05:17:30;14.37;;;9.60;;
14686;SDS011;7431;49.440;11.084;2024-03-02T05:19:56;14.47;;;8.87;;
14686;SDS011;7431;49.440;11.084;2024-03-02T05:22:22;17.87;;;10.60;;
14686;SDS011;7431;49.440;11.084;2024-03-02T05:24:47;13.43;;;8.57;;
14686;SDS011;7431;49.440;11.084;2024-03-02T05:27:14;14.93;;;9.37;;
14686;SDS011;7431;49.440;11.084;2024-03-02T05:29:40;14.03;;;8.40;;
14686;SDS011;7431;49.440;11.084;2024-03-02T05:32:06;18.27;;;10.30;;
14686;SDS011;7431;49.440;11.084;2024-03-02T05:34:32;16.07;;;9.27;;
14686;SDS011;7431;49.440;11.084;2024-03-02T05:37:00;14.03;;;8.73;;
14686;SDS011;7431;49.440;11.084;2024-03-02T05:39:26;15.83;;;9.93;;
14686;SDS011;7431;49.440;11.084;2024-03-02T05:41:52;15.90;;;9.90;;
14686;SDS011;7431;49.440;11.084;2024-03-02T05:44:18;13.90;;;9.73;;
14686;SDS011;7431;49.440;11.084;2024-03-02T05:46:44;14.67;;;9.50;;
14686;SDS011;7431;49.440;11.084;2024-03-02T05:49:10;20.07;;;10.30;;
14686;SDS011;7431;49.440;11.084;2024-03-02T05:51:39;14.03;;;9.60;;
14686;SDS011;7431;49.440;11.084;2024-03-02T05:54:05;14.97;;;9.90;;
14686;SDS011;7431;49.440;11.084;2024-03-02T05:56:31;15.37;;;9.30;;
14686;SDS011;7431;49.440;11.084;2024-03-02T05:58:57;13.60;;;8.77;;
14686;SDS011;7431;49.440;11.084;2024-03-02T06:01:42;12.97;;;9.00;;
14686;SDS011;7431;49.440;11.084;2024-03-02T06:04:09;18.13;;;10.00;;
14686;SDS011;7431;49.440;11.084;2024-03-02T06:06:36;15.30;;;10.20;;
14686;SDS011;7431;49.440;11.084;2024-03-02T06:09:02;17.17;;;9.63;;
14686;SDS011;7431;49.440;11.084;2024-03-02T06:11:32;15.63;;;9.53;;
14686;SDS011;7431;49.440;11.084;2024-03-02T06:13:58;16.20;;;9.40;;
14686;SDS011;7431;49.440;11.084;2024-03-02T06:16:24;19.43;;;10.33;;
14686;SDS011;7431;49.440;11.084;2024-03-02T06:18:50;15.93;;;9.90;;
14686;SDS011;7431;49.440;11.084;2024-03-02T06:21:16;15.77;;;9.83;;
14686;SDS011;7431;49.440;11.084;2024-03-02T06:23:43;20.27;;;10.60;;
14686;SDS011;7431;49.440;11.084;2024-03-02T06:26:09;16.97;;;11.10;;
14686;SDS011;7431;49.440;11.084;2024-03-02T06:28:35;15.37;;;9.17;;
14686;SDS011;7431;49.440;11.084;2024-03-02T06:31:01;16.20;;;9.70;;
14686;SDS011;7431;49.440;11.084;2024-03-02T06:33:28;16.17;;;9.83;;
14686;SDS011;7431;49.440;11.084;2024-03-02T06:35:54;15.47;;;9.60;;
14686;SDS011;7431;49.440;11.084;2024-03-02T06:38:20;18.70;;;11.17;;
14686;SDS011;7431;49.440;11.084;2024-03-02T06:40:46;17.77;;;10.33;;
14686;SDS011;7431;49.440;11.084;2024-03-02T06:43:12;16.03;;;9.47;;
14686;SDS011;7431;49.440;11.084;2024-03-02T06:45:38;16.90;;;10.13;;
14686;SDS011;7431;49.440;11.084;2024-03-02T06:48:04;16.97;;;10.33;;
14686;SDS011;7431;49.440;11.084;2024-03-02T06:50:30;17.90;;;10.73;;
14686;SDS011;7431;49.440;11.084;2024-03-02T06:52:56;18.13;;;10.83;;
14686;SDS011;7431;49.440;11.084;2024-03-02T06:55:22;15.53;;;10.13;;
14686;SDS011;7431;49.440;11.084;2024-03-02T06:57:51;17.77;;;11.00;;
14686;SDS011;7431;49.440;11.084;2024-03-02T07:00:17;17.33;;;10.90;;
14686;SDS011;7431;49.440;11.084;2024-03-02T07:02:45;17.37;;;10.33;;
14686;SDS011;7431;49.440;11.084;2024-03-02T07:05:11;21.20;;;11.77;;
14686;SDS011;7431;49.440;11.084;2024-03-02T07:07:37;18.57;;;11.63;;
14686;SDS011;7431;49.440;11.084;2024-03-02T07:10:06;17.63;;;11.33;;
14686;SDS011;7431;49.440;11.084;2024-03-02T07:12:32;14.73;;;10.03;;
14686;SDS011;7431;49.440;11.084;2024-03-02T07:14:58;20.37;;;11.07;;
14686;SDS011;7431;49.440;11.084;2024-03-02T07:17:27;16.83;;;10.60;;
14686;SDS011;7431;49.440;11.084;2024-03-02T07:19:53;15.80;;;10.13;;
14686;SDS011;7431;49.440;11.084;2024-03-02T07:22:19;17.73;;;10.50;;
14686;SDS011;7431;49.440;11.084;2024-03-02T07:24:45;17.03;;;10.83;;
14686;SDS011;7431;49.440;11.084;2024-03-02T07:27:11;14.50;;;9.07;;
14686;SDS011;7431;49.440;11.084;2024-03-02T07:29:38;14.33;;;9.43;;
14686;SDS011;7431;49.440;11.084;2024-03-02T07:32:04;13.20;;;8.50;;
14686;SDS011;7431;49.440;11.084;2024-03-02T07:34:30;13.97;;;9.00;;
14686;SDS011;7431;49.440;11.084;2024-03-02T07:36:56;10.37;;;7.10;;
14686;SDS011;7431;49.440;11.084;2024-03-02T07:39:22;12.97;;;8.67;;
14686;SDS011;7431;49.440;11.084;2024-03-02T07:41:49;11.83;;;8.80;;
14686;SDS011;7431;49.440;11.084;2024-03-02T07:44:15;12.83;;;7.97;;
14686;SDS011;7431;49.440;11.084;2024-03-02T07:46:41;10.37;;;7.50;;
14686;SDS011;7431;49.440;11.084;2024-03-02T07:49:07;12.77;;;8.40;;
14686;SDS011;7431;49.440;11.084;2024-03-02T07:51:33;11.53;;;7.90;;
14686;SDS011;7431;49.440;11.084;2024-03-02T07:53:59;14.23;;;8.47;;
14686;SDS011;7431;49.440;11.084;2024-03-02T07:56:25;13.30;;;8.40;;
14686;SDS011;7431;49.440;11.084;2024-03-02T07:58:52;11.13;;;7.53;;
14686;SDS011;7431;49.440;11.084;2024-03-02T08:01:18;14.80;;;9.27;;
14686;SDS011;7431;49.440;11.084;2024-03-02T08:03:44;11.47;;;7.60;;
14686;SDS011;7431;49.440;11.084;2024-03-02T08:06:13;13.13;;;8.50;;
14686;SDS011;7431;49.440;11.084;2024-03-02T08:08:40;13.00;;;8.13;;
14686;SDS011;7431;49.440;11.084;2024-03-02T08:11:06;11.57;;;8.37;;
14686;SDS011;7431;49.440;11.084;2024-03-02T08:13:32;12.37;;;8.10;;
14686;SDS011;7431;49.440;11.084;2024-03-02T08:15:58;10.97;;;7.47;;
14686;SDS011;7431;49.440;11.084;2024-03-02T08:18:24;11.20;;;7.57;;
14686;SDS011;7431;49.440;11.084;2024-03-02T08:20:50;11.90;;;7.63;;
14686;SDS011;7431;49.440;11.084;2024-03-02T08:23:16;11.80;;;7.90;;
14686;SDS011;7431;49.440;11.084;2024-03-02T08:25:42;14.13;;;8.23;;
14686;SDS011;7431;49.440;11.084;2024-03-02T08:28:08;11.60;;;7.73;;
14686;SDS011;7431;49.440;11.084;2024-03-02T08:30:34;12.70;;;8.30;;
14686;SDS011;7431;49.440;11.084;2024-03-02T08:33:00;12.03;;;7.83;;
14686;SDS011;7431;49.440;11.084;2024-03-02T08:35:26;10.37;;;8.00;;
14686;SDS011;7431;49.440;11.084;2024-03-02T08:37:53;10.77;;;7.60;;
14686;SDS011;7431;49.440;11.084;2024-03-02T08:40:19;10.17;;;7.33;;
14686;SDS011;7431;49.440;11.084;2024-03-02T08:42:45;12.03;;;7.90;;
14686;SDS011;7431;49.440;11.084;2024-03-02T08:45:11;11.13;;;7.10;;
14686;SDS011;7431;49.440;11.084;2024-03-02T08:47:37;9.37;;;6.93;;
14686;SDS011;7431;49.440;11.084;2024-03-02T08:50:04;9.10;;;6.63;;
14686;SDS011;7431;49.440;11.084;2024-03-02T08:52:31;8.90;;;7.00;;
14686;SDS011;7431;49.440;11.084;2024-03-02T08:54:57;8.87;;;6.83;;
14686;SDS011;7431;49.440;11.084;2024-03-02T08:57:23;11.47;;;7.50;;
14686;SDS011;7431;49.440;11.084;2024-03-02T08:59:49;9.27;;;6.93;;
14686;SDS011;7431;49.440;11.084;2024-03-02T09:02:15;9.07;;;6.30;;
14686;SDS011;7431;49.440;11.084;2024-03-02T09:04:41;9.07;;;6.57;;
14686;SDS011;7431;49.440;11.084;2024-03-02T09:07:07;6.67;;;5.53;;
14686;SDS011;7431;49.440;11.084;2024-03-02T09:09:33;8.40;;;5.87;;
14686;SDS011;7431;49.440;11.084;2024-03-02T09:11:59;7.57;;;5.90;;
14686;SDS011;7431;49.440;11.084;2024-03-02T09:14:26;8.43;;;6.33;;
14686;SDS011;7431;49.440;11.084;2024-03-02T09:16:52;7.93;;;5.83;;
14686;SDS011;7431;49.440;11.084;2024-03-02T09:19:18;8.93;;;6.20;;
14686;SDS011;7431;49.440;11.084;2024-03-02T09:21:44;7.07;;;5.67;;
14686;SDS011;7431;49.440;11.084;2024-03-02T09:24:09;7.17;;;5.53;;
14686;SDS011;7431;49.440;11.084;2024-03-02T09:26:35;8.00;;;5.43;;
14686;SDS011;7431;49.440;11.084;2024-03-02T09:29:01;8.37;;;6.00;;
14686;SDS011;7431;49.440;11.084;2024-03-02T09:31:27;8.83;;;6.30;;
14686;SDS011;7431;49.440;11.084;2024-03-02T09:33:53;9.47;;;6.00;;
14686;SDS011;7431;49.440;11.084;2024-03-02T09:36:20;8.43;;;6.27;;
14686;SDS011;7431;49.440;11.084;2024-03-02T09:38:47;7.63;;;5.60;;
14686;SDS011;7431;49.440;11.084;2024-03-02T09:41:13;6.47;;;5.30;;
14686;SDS011;7431;49.440;11.084;2024-03-02T09:43:39;6.90;;;5.73;;
14686;SDS011;7431;49.440;11.084;2024-03-02T09:46:06;8.33;;;5.67;;
14686;SDS011;7431;49.440;11.084;2024-03-02T09:48:33;6.63;;;5.87;;
14686;SDS011;7431;49.440;11.084;2024-03-02T09:51:00;6.63;;;5.17;;
14686;SDS011;7431;49.440;11.084;2024-03-02T09:53:30;6.90;;;5.17;;
14686;SDS011;7431;49.440;11.084;2024-03-02T09:55:57;8.30;;;5.70;;
14686;SDS011;7431;49.440;11.084;2024-03-02T09:58:22;7.03;;;5.70;;
14686;SDS011;7431;49.440;11.084;2024-03-02T10:03:18;6.60;;;5.10;;
14686;SDS011;7431;49.440;11.084;2024-03-02T10:05:46;7.97;;;6.00;;
14686;SDS011;7431;49.440;11.084;2024-03-02T10:08:12;7.47;;;5.60;;
14686;SDS011;7431;49.440;11.084;2024-03-02T10:10:41;6.60;;;5.10;;
14686;SDS011;7431;49.440;11.084;2024-03-02T10:13:09;6.70;;;4.83;;
14686;SDS011;7431;49.440;11.084;2024-03-02T10:15:35;8.93;;;5.47;;
14686;SDS011;7431;49.440;11.084;2024-03-02T10:18:12;6.03;;;5.07;;
14686;SDS011;7431;49.440;11.084;2024-03-02T10:20:41;7.63;;;5.10;;
14686;SDS011;7431;49.440;11.084;2024-03-02T10:23:14;7.10;;;5.00;;
14686;SDS011;7431;49.440;11.084;2024-03-02T10:25:41;7.53;;;5.20;;
14686;SDS011;7431;49.440;11.084;2024-03-02T10:28:07;7.43;;;5.50;;
14686;SDS011;7431;49.440;11.084;2024-03-02T10:30:35;6.97;;;5.30;;
14686;SDS011;7431;49.440;11.084;2024-03-02T10:33:01;7.37;;;5.67;;
14686;SDS011;7431;49.440;11.084;2024-03-02T10:35:27;7.47;;;5.87;;
14686;SDS011;7431;49.440;11.084;2024-03-02T10:37:53;8.47;;;6.20;;
14686;SDS011;7431;49.440;11.084;2024-03-02T10:40:23;7.57;;;5.67;;
14686;SDS011;7431;49.440;11.084;2024-03-02T10:42:52;9.77;;;6.43;;
14686;SDS011;7431;49.440;11.084;2024-03-02T10:45:19;8.27;;;6.50;;
14686;SDS011;7431;49.440;11.084;2024-03-02T10:47:49;7.10;;;5.73;;
14686;SDS011;7431;49.440;11.084;2024-03-02T10:50:15;7.07;;;5.37;;
14686;SDS011;7431;49.440;11.084;2024-03-02T10:52:42;7.10;;;5.67;;
14686;SDS011;7431;49.440;11.084;2024-03-02T10:55:08;10.40;;;6.70;;
14686;SDS011;7431;49.440;11.084;2024-03-02T10:57:41;8.23;;;6.17;;
14686;SDS011;7431;49.440;11.084;2024-03-02T11:00:08;9.53;;;6.93;;
14686;SDS011;7431;49.440;11.084;2024-03-02T11:02:40;10.27;;;7.67;;
14686;SDS011;7431;49.440;11.084;2024-03-02T11:05:07;8.83;;;6.63;;
14686;SDS011;7431;49.440;11.084;2024-03-02T11:07:35;9.77;;;6.57;;
14686;SDS011;7431;49.440;11.084;2024-03-02T11:10:02;8.63;;;7.10;;
14686;SDS011;7431;49.440;11.084;2024-03-02T11:12:36;8.83;;;6.70;;
14686;SDS011;7431;49.440;11.084;2024-03-02T11:15:02;9.67;;;6.87;;
14686;SDS011;7431;49.440;11.084;2024-03-02T11:17:30;11.90;;;8.00;;
14686;SDS011;7431;49.440;11.084;2024-03-02T11:19:56;10.47;;;7.60;;
14686;SDS011;7431;49.440;11.084;2024-03-02T11:22:22;9.70;;;7.53;;
14686;SDS011;7431;49.440;11.084;2024-03-02T11:24:49;9.47;;;7.40;;
14686;SDS011;7431;49.440;11.084;2024-03-02T11:27:20;11.37;;;8.27;;
14686;SDS011;7431;49.440;11.084;2024-03-02T11:30:02;7.50;;;6.37;;
14686;SDS011;7431;49.440;11.084;2024-03-02T11:32:28;9.33;;;6.90;;
14686;SDS011;7431;49.440;11.084;2024-03-02T11:34:54;9.03;;;6.70;;
14686;SDS011;7431;49.440;11.084;2024-03-02T11:37:20;8.37;;;6.60;;
14686;SDS011;7431;49.440;11.084;2024-03-02T11:39:48;8.80;;;6.60;;
14686;SDS011;7431;49.440;11.084;2024-03-02T11:42:14;7.50;;;6.17;;
14686;SDS011;7431;49.440;11.084;2024-03-02T11:44:42;7.33;;;6.17;;
14686;SDS011;7431;49.440;11.084;2024-03-02T11:47:08;9.00;;;6.60;;
14686;SDS011;7431;49.440;11.084;2024-03-02T11:49:40;10.27;;;6.90;;
14686;SDS011;7431;49.440;11.084;2024-03-02T11:52:07;9.63;;;6.57;;
14686;SDS011;7431;49.440;11.084;2024-03-02T11:54:34;11.77;;;7.77;;
14686;SDS011;7431;49.440;11.084;2024-03-02T11:57:03;12.17;;;7.00;;
14686;SDS011;7431;49.440;11.084;2024-03-02T11:59:30;11.40;;;7.97;;
14686;SDS011;7431;49.440;11.084;2024-03-02T12:01:56;12.73;;;8.40;;
14686;SDS011;7431;49.440;11.084;2024-03-02T12:04:23;12.30;;;7.73;;
14686;SDS011;7431;49.440;11.084;2024-03-02T12:06:56;11.17;;;8.23;;
14686;SDS011;7431;49.440;11.084;2024-03-02T12:09:24;12.20;;;7.63;;
14686;SDS011;7431;49.440;11.084;2024-03-02T12:12:07;13.10;;;8.30;;
14686;SDS011;7431;49.440;11.084;2024-03-02T12:14:33;11.87;;;7.93;;
14686;SDS011;7431;49.440;11.084;2024-03-02T12:17:00;13.60;;;8.67;;
14686;SDS011;7431;49.440;11.084;2024-03-02T12:19:27;11.97;;;8.60;;
14686;SDS011;7431;49.440;11.084;2024-03-02T12:21:54;14.67;;;8.57;;
14686;SDS011;7431;49.440;11.084;2024-03-02T12:24:21;14.17;;;9.50;;
14686;SDS011;7431;49.440;11.084;2024-03-02T12:26:47;14.30;;;9.73;;
14686;SDS011;7431;49.440;11.084;2024-03-02T12:29:14;12.67;;;8.70;;
14686;SDS011;7431;49.440;11.084;2024-03-02T12:31:40;16.50;;;10.20;;
14686;SDS011;7431;49.440;11.084;2024-03-02T12:34:06;14.20;;;10.17;;
14686;SDS011;7431;49.440;11.084;2024-03-02T12:36:37;15.20;;;9.43;;
14686;SDS011;7431;49.440;11.084;2024-03-02T12:39:03;22.23;;;10.80;;
14686;SDS011;7431;49.440;11.084;2024-03-02T12:41:29;16.37;;;10.30;;
14686;SDS011;7431;49.440;11.084;2024-03-02T12:43:55;12.93;;;9.20;;
14686;SDS011;7431;49.440;11.084;2024-03-02T12:46:21;14.80;;;9.47;;
14686;SDS011;7431;49.440;11.084;2024-03-02T12:48:47;16.23;;;10.30;;
14686;SDS011;7431;49.440;11.084;2024-03-02T12:51:13;12.97;;;9.60;;
14686;SDS011;7431;49.440;11.084;2024-03-02T12:53:39;17.27;;;10.63;;
14686;SDS011;7431;49.440;11.084;2024-03-02T12:56:05;13.17;;;9.03;;
14686;SDS011;7431;49.440;11.084;2024-03-02T12:58:38;13.10;;;9.07;;
14686;SDS011;7431;49.440;11.084;2024-03-02T13:01:06;13.37;;;9.67;;
14686;SDS011;7431;49.440;11.084;2024-03-02T13:03:40;13.63;;;9.60;;
14686;SDS011;7431;49.440;11.084;2024-03-02T13:06:06;14.73;;;8.97;;
14686;SDS011;7431;49.440;11.084;2024-03-02T13:08:36;13.07;;;8.27;;
14686;SDS011;7431;49.440;11.084;2024-03-02T13:11:02;14.13;;;8.93;;
14686;SDS011;7431;49.440;11.084;2024-03-02T13:13:31;13.50;;;8.53;;
14686;SDS011;7431;49.440;11.084;2024-03-02T13:15:57;9.80;;;7.70;;
14686;SDS011;7431;49.440;11.084;2024-03-02T13:18:23;10.83;;;7.60;;
14686;SDS011;7431;49.440;11.084;2024-03-02T13:20:49;10.23;;;7.37;;
14686;SDS011;7431;49.440;11.084;2024-03-02T13:23:15;12.27;;;7.67;;
14686;SDS011;7431;49.440;11.084;2024-03-02T13:25:41;13.93;;;8.30;;
14686;SDS011;7431;49.440;11.084;2024-03-02T13:28:08;12.17;;;7.77;;
14686;SDS011;7431;49.440;11.084;2024-03-02T13:30:34;11.90;;;7.03;;
14686;SDS011;7431;49.440;11.084;2024-03-02T13:33:00;9.60;;;7.00;;
14686;SDS011;7431;49.440;11.084;2024-03-02T13:35:26;10.10;;;6.67;;
14686;SDS011;7431;49.440;11.084;2024-03-02T13:37:52;9.13;;;6.87;;
14686;SDS011;7431;49.440;11.084;2024-03-02T13:40:18;12.40;;;7.23;;
14686;SDS011;7431;49.440;11.084;2024-03-02T13:42:48;10.73;;;7.17;;
14686;SDS011;7431;49.440;11.084;2024-03-02T13:45:15;10.60;;;7.43;;
14686;SDS011;7431;49.440;11.084;2024-03-02T13:47:42;9.63;;;7.00;;
14686;SDS011;7431;49.440;11.084;2024-03-02T13:50:08;9.97;;;7.23;;
14686;SDS011;7431;49.440;11.084;2024-03-02T13:52:34;13.20;;;7.37;;
14686;SDS011;7431;49.440;11.084;2024-03-02T13:55:00;12.13;;;7.60;;
14686;SDS011;7431;49.440;11.084;2024-03-02T13:57:26;11.60;;;7.27;;
14686;SDS011;7431;49.440;11.084;2024-03-02T13:59:53;11.97;;;7.73;;
14686;SDS011;7431;49.440;11.084;2024-03-02T14:02:19;12.20;;;7.53;;
14686;SDS011;7431;49.440;11.084;2024-03-02T14:04:45;11.37;;;6.97;;
14686;SDS011;7431;49.440;11.084;2024-03-02T14:07:14;11.33;;;7.00;;
14686;SDS011;7431;49.440;11.084;2024-03-02T14:09:40;11.67;;;8.07;;
14686;SDS011;7431;49.440;11.084;2024-03-02T14:12:06;12.03;;;7.67;;
14686;SDS011;7431;49.440;11.084;2024-03-02T14:14:32;12.70;;;7.83;;
14686;SDS011;7431;49.440;11.084;2024-03-02T14:16:58;11.77;;;8.27;;
14686;SDS011;7431;49.440;11.084;2024-03-02T14:19:31;12.50;;;7.53;;
14686;SDS011;7431;49.440;11.084;2024-03-02T14:21:58;11.13;;;7.80;;
14686;SDS011;7431;49.440;11.084;2024-03-02T14:24:24;15.33;;;8.47;;
14686;SDS011;7431;49.440;11.084;2024-03-02T14:26:51;11.37;;;7.63;;
14686;SDS011;7431;49.440;11.084;2024-03-02T14:29:17;11.90;;;8.30;;
14686;SDS011;7431;49.440;11.084;2024-03-02T14:31:43;13.17;;;7.30;;
14686;SDS011;7431;49.440;11.084;2024-03-02T14:34:13;12.73;;;8.57;;